createdAt,value
2022-11-12T00:01:21.241Z,46.63
2022-11-12T00:04:54.934Z,49.18
2022-11-12T00:08:30.200Z,43.65
2022-11-12T00:12:04.775Z,44.53
2022-11-12T00:15:39.019Z,40.68
2022-11-12T00:19:13.328Z,41.38
2022-11-12T00:22:47.224Z,44.00
2022-11-12T00:26:21.235Z,42.13
2022-11-12T00:29:55.641Z,39.53
2022-11-12T00:33:29.723Z,42.45
2022-11-12T00:37:03.543Z,48.85
2022-11-12T00:40:37.741Z,43.05
2022-11-12T00:44:12.274Z,39.25
2022-11-12T00:47:46.470Z,40.03
2022-11-12T00:51:20.176Z,42.00
2022-11-12T00:54:55.437Z,40.08
2022-11-12T00:58:29.428Z,38.48
2022-11-12T01:02:03.578Z,42.48
2022-11-12T01:05:40.375Z,38.03
2022-11-12T01:09:15.004Z,37.35
2022-11-12T01:12:49.295Z,41.18
2022-11-12T01:16:27.189Z,39.98
2022-11-12T01:20:01.304Z,38.45
2022-11-12T01:23:35.576Z,41.90
2022-11-12T01:27:10.035Z,37.85
2022-11-12T01:30:44.377Z,36.90
2022-11-12T01:34:19.182Z,38.83
2022-11-12T01:37:53.315Z,43.78
2022-11-12T01:41:30.236Z,40.03
2022-11-12T01:45:04.701Z,38.95
2022-11-12T01:48:44.916Z,37.40
2022-11-12T01:52:28.341Z,40.80
2022-11-12T01:56:03.360Z,40.68
2022-11-12T01:59:42.618Z,42.88
2022-11-12T02:03:21.165Z,40.50
2022-11-12T02:06:56.217Z,38.43
2022-11-12T02:10:31.671Z,37.93
2022-11-12T02:14:06.764Z,36.38
2022-11-12T02:17:40.792Z,41.33
2022-11-12T02:21:17.101Z,38.88
2022-11-12T02:24:51.176Z,42.20
2022-11-12T02:28:26.061Z,45.25
2022-11-12T02:32:00.604Z,39.00
2022-11-12T02:35:34.790Z,35.48
2022-11-12T02:39:08.828Z,36.95
2022-11-12T02:42:42.803Z,37.88
2022-11-12T02:46:17.453Z,37.85
2022-11-12T02:49:51.438Z,38.95
2022-11-12T02:53:25.568Z,38.60
2022-11-12T02:56:59.334Z,36.43
2022-11-12T03:00:33.161Z,35.43
2022-11-12T03:04:07.064Z,36.28
2022-11-12T03:07:40.980Z,38.05
2022-11-12T03:11:20.845Z,35.05
2022-11-12T03:14:55.031Z,39.25
2022-11-12T03:18:28.927Z,32.75
2022-11-12T03:22:03.822Z,33.15
2022-11-12T03:25:38.654Z,37.43
2022-11-12T03:29:14.601Z,34.18
2022-11-12T03:32:50.369Z,35.78
2022-11-12T03:36:24.769Z,39.45
2022-11-12T03:40:01.669Z,38.48
2022-11-12T03:43:35.888Z,38.68
2022-11-12T03:47:09.976Z,36.65
2022-11-12T03:50:43.929Z,37.40
2022-11-12T03:54:18.128Z,42.10
2022-11-12T03:57:52.901Z,33.60
2022-11-12T04:01:27.145Z,36.93
2022-11-12T04:05:15.037Z,35.20
2022-11-12T04:08:49.564Z,38.18
2022-11-12T04:12:43.224Z,37.45
2022-11-12T04:16:39.625Z,36.00
2022-11-12T04:20:30.644Z,34.85
2022-11-12T04:24:05.165Z,37.93
2022-11-12T04:27:43.392Z,36.90
2022-11-12T04:31:17.281Z,34.83
2022-11-12T04:34:51.532Z,33.63
2022-11-12T04:38:25.708Z,38.38
2022-11-12T04:42:13.833Z,41.48
2022-11-12T04:45:52.187Z,39.35
2022-11-12T04:49:26.321Z,37.55
2022-11-12T04:53:00.413Z,36.13
2022-11-12T04:56:34.480Z,35.38
2022-11-12T05:00:08.267Z,36.53
2022-11-12T05:03:42.382Z,38.13
2022-11-12T05:07:16.376Z,34.08
2022-11-12T05:10:52.110Z,39.18
2022-11-12T05:14:26.619Z,33.13
2022-11-12T05:18:01.209Z,37.85
2022-11-12T05:21:49.460Z,37.55
2022-11-12T05:25:23.670Z,37.55
2022-11-12T05:28:57.731Z,38.70
2022-11-12T05:32:32.123Z,38.03
2022-11-12T05:36:07.353Z,39.53
2022-11-12T05:39:41.509Z,36.38
2022-11-12T05:43:15.857Z,38.30
2022-11-12T05:46:51.107Z,41.00
2022-11-12T05:50:28.192Z,34.93
2022-11-12T05:54:02.695Z,37.70
2022-11-12T05:57:38.402Z,40.73
2022-11-12T06:01:13.363Z,38.93
2022-11-12T06:04:47.650Z,38.03
2022-11-12T06:08:22.721Z,38.13
2022-11-12T06:11:56.955Z,39.35
2022-11-12T06:15:33.948Z,40.60
2022-11-12T06:19:09.367Z,41.40
2022-11-12T06:22:43.669Z,41.30
2022-11-12T06:26:17.926Z,40.68
2022-11-12T06:29:51.951Z,42.18
2022-11-12T06:33:26.135Z,39.90
2022-11-12T06:37:00.263Z,37.68
2022-11-12T06:40:33.961Z,40.90
2022-11-12T06:44:08.379Z,37.83
2022-11-12T06:47:42.538Z,37.73
2022-11-12T06:51:23.819Z,33.68
2022-11-12T06:54:58.340Z,33.50
2022-11-12T06:58:32.557Z,36.13
2022-11-12T07:02:07.171Z,33.30
2022-11-12T07:05:45.245Z,32.05
2022-11-12T07:09:19.318Z,35.48
2022-11-12T07:12:55.263Z,33.08
2022-11-12T07:16:29.437Z,33.35
2022-11-12T07:20:04.232Z,30.65
2022-11-12T07:23:41.441Z,31.23
2022-11-12T07:27:15.854Z,35.08
2022-11-12T07:30:49.723Z,33.03
2022-11-12T07:34:26.714Z,33.58
2022-11-12T07:38:08.370Z,32.30
2022-11-12T07:41:45.151Z,39.08
2022-11-12T07:45:28.605Z,33.30
2022-11-12T07:49:03.654Z,35.75
2022-11-12T07:52:55.375Z,33.08
2022-11-12T07:56:33.876Z,34.35
2022-11-12T08:00:15.229Z,33.37
2022-11-12T08:03:56.675Z,30.95
2022-11-12T08:07:33.622Z,30.80
2022-11-12T08:11:07.863Z,29.45
2022-11-12T08:14:44.799Z,29.53
2022-11-12T08:18:30.900Z,28.85
2022-11-12T08:22:08.006Z,27.33
2022-11-12T08:25:49.461Z,30.55
2022-11-12T08:32:58.758Z,29.65
2022-11-12T08:36:35.434Z,26.10
2022-11-12T08:40:10.198Z,26.83
2022-11-12T08:43:49.420Z,26.43
2022-11-12T08:47:35.099Z,27.60
2022-11-12T08:51:31.616Z,30.05
2022-11-12T08:55:23.448Z,26.38
2022-11-12T08:59:03.752Z,22.65
2022-11-12T09:02:42.698Z,23.70
2022-11-12T09:06:21.036Z,25.30
2022-11-12T09:10:02.990Z,20.50
2022-11-12T09:13:37.469Z,20.52
2022-11-12T09:17:13.411Z,20.50
2022-11-12T09:20:48.473Z,27.43
2022-11-12T09:24:34.884Z,53.63
2022-11-12T09:28:14.478Z,26.53
2022-11-12T09:31:48.727Z,20.40
2022-11-12T09:35:26.458Z,20.73
2022-11-12T09:39:06.672Z,18.85
2022-11-12T09:42:42.461Z,22.68
2022-11-12T09:46:28.242Z,20.88
2022-11-12T09:50:11.778Z,21.55
2022-11-12T09:53:53.841Z,20.05
2022-11-12T09:57:28.151Z,21.10
2022-11-12T10:01:12.580Z,21.03
2022-11-12T10:05:32.713Z,17.53
2022-11-12T10:09:15.678Z,20.80
2022-11-12T10:13:10.837Z,17.10
2022-11-12T10:17:03.050Z,17.90
2022-11-12T10:20:42.214Z,17.70
2022-11-12T10:24:26.282Z,19.03
2022-11-12T10:28:05.365Z,20.00
2022-11-12T10:31:45.470Z,21.53
2022-11-12T10:35:24.276Z,87.48
2022-11-12T10:39:03.554Z,31.15
2022-11-12T10:42:38.715Z,21.47
2022-11-12T10:46:25.661Z,19.00
2022-11-12T10:50:22.319Z,16.93
2022-11-12T10:53:58.586Z,15.43
2022-11-12T10:57:37.024Z,15.00
2022-11-12T11:05:36.150Z,12.83
2022-11-12T11:09:27.554Z,15.43
2022-11-12T11:13:33.640Z,11.85
2022-11-12T11:17:13.321Z,11.63
2022-11-12T11:20:53.500Z,12.75
2022-11-12T11:24:43.655Z,14.80
2022-11-12T11:28:28.567Z,35.00
2022-11-12T11:32:08.159Z,14.13
2022-11-12T11:36:08.288Z,15.83
2022-11-12T11:39:52.564Z,12.70
2022-11-12T11:43:57.961Z,11.60
2022-11-12T11:48:00.025Z,7.83
2022-11-12T11:51:29.767Z,11.15
2022-11-12T11:55:20.555Z,9.15
2022-11-12T11:59:09.098Z,11.08
2022-11-12T12:03:14.676Z,13.50
2022-11-12T12:06:54.862Z,10.10
2022-11-12T12:11:06.336Z,9.75
2022-11-12T12:14:37.826Z,11.55
2022-11-12T12:18:22.999Z,12.48
2022-11-12T12:22:00.493Z,27.13
2022-11-12T12:25:41.479Z,14.10
2022-11-12T12:29:21.906Z,13.23
2022-11-12T12:33:03.286Z,9.75
2022-11-12T12:36:43.398Z,11.70
2022-11-12T12:40:23.613Z,14.50
2022-11-12T12:44:08.679Z,13.45
2022-11-12T12:47:48.937Z,12.50
2022-11-12T12:51:36.718Z,12.98
2022-11-12T12:55:14.618Z,13.03
2022-11-12T12:58:56.029Z,15.18
2022-11-12T13:02:40.019Z,13.85
2022-11-12T13:06:30.316Z,14.95
2022-11-12T13:10:38.888Z,14.90
2022-11-12T13:14:57.875Z,13.80
2022-11-12T13:23:12.106Z,12.68
2022-11-12T13:27:09.204Z,13.33
2022-11-12T13:31:38.050Z,11.28
2022-11-12T13:35:49.172Z,14.00
2022-11-12T13:39:30.138Z,11.95
2022-11-12T13:43:50.275Z,14.08
2022-11-12T13:51:29.713Z,14.55
2022-11-12T13:55:21.404Z,17.15
2022-11-12T13:59:23.306Z,13.50
2022-11-12T14:03:02.453Z,15.05
2022-11-12T14:06:42.354Z,14.68
2022-11-12T14:10:24.568Z,10.88
2022-11-12T14:14:14.435Z,13.05
2022-11-12T14:18:01.094Z,12.40
2022-11-12T14:21:46.836Z,16.75
2022-11-12T14:25:46.366Z,11.75
2022-11-12T14:29:59.142Z,12.05
2022-11-12T14:38:43.422Z,14.48
2022-11-12T14:42:46.308Z,11.98
2022-11-12T14:46:42.869Z,12.03
2022-11-12T14:50:41.611Z,14.15
2022-11-12T14:54:36.408Z,15.40
2022-11-12T14:58:39.172Z,13.70
2022-11-12T15:02:57.872Z,15.95
2022-11-12T15:06:55.913Z,16.30
2022-11-12T15:11:56.898Z,13.58
2022-11-12T15:15:57.712Z,14.33
2022-11-12T15:19:41.003Z,13.88
2022-11-12T15:23:27.467Z,16.83
2022-11-12T15:27:09.114Z,17.48
2022-11-12T15:30:52.440Z,18.33
2022-11-12T15:34:51.254Z,18.68
2022-11-12T15:38:37.259Z,20.08
2022-11-12T15:42:29.518Z,14.48
2022-11-12T15:46:21.287Z,22.33
2022-11-12T15:50:01.666Z,19.80
2022-11-12T15:53:47.042Z,16.40
2022-11-12T15:57:30.797Z,18.98
2022-11-12T16:01:06.567Z,16.33
2022-11-12T16:04:45.182Z,16.33
2022-11-12T16:08:20.484Z,19.23
2022-11-12T16:11:58.456Z,20.95
2022-11-12T16:15:47.015Z,20.90
2022-11-12T16:22:57.283Z,19.43
2022-11-12T16:26:35.527Z,18.90
2022-11-12T16:30:10.996Z,16.00
2022-11-12T16:33:46.219Z,20.38
2022-11-12T16:37:22.268Z,22.98
2022-11-12T16:41:09.976Z,22.40
2022-11-12T16:44:45.677Z,20.38
2022-11-12T16:48:55.703Z,18.35
2022-11-12T16:52:57.072Z,24.78
2022-11-12T16:56:43.957Z,19.88
2022-11-12T17:03:54.657Z,20.33
2022-11-12T17:07:37.955Z,20.88
2022-11-12T17:11:31.325Z,21.08
2022-11-12T17:16:37.986Z,24.50
2022-11-12T17:20:33.551Z,37.53
2022-11-12T17:23:53.744Z,85.38
2022-11-12T17:27:34.666Z,54.85
2022-11-12T17:31:35.438Z,32.43
2022-11-12T17:35:13.763Z,35.58
2022-11-12T17:38:49.074Z,32.75
2022-11-12T17:42:25.115Z,30.78
2022-11-12T17:46:05.762Z,29.80
2022-11-12T17:49:49.720Z,32.18
2022-11-12T17:53:28.785Z,36.25
2022-11-12T17:57:07.030Z,31.15
2022-11-12T18:00:48.173Z,38.55
2022-11-12T18:04:28.660Z,34.15
2022-11-12T18:11:58.415Z,62.75
2022-11-12T18:15:33.080Z,61.10
2022-11-12T18:19:13.445Z,63.55
2022-11-12T18:22:48.021Z,58.85
2022-11-12T18:26:30.760Z,61.70
2022-11-12T18:30:21.191Z,56.53
2022-11-12T18:34:26.648Z,59.05
2022-11-12T18:38:13.147Z,59.40
2022-11-12T18:41:47.485Z,51.40
2022-11-12T18:45:24.079Z,51.85
2022-11-12T18:48:58.986Z,51.23
2022-11-12T18:52:33.250Z,50.50
2022-11-12T18:56:11.203Z,56.08
2022-11-12T18:59:46.179Z,54.05
2022-11-12T19:03:25.927Z,55.20
2022-11-12T19:07:00.919Z,67.75
2022-11-12T19:10:36.381Z,58.00
2022-11-12T19:14:16.934Z,61.73
2022-11-12T19:17:55.943Z,109.93
2022-11-12T19:21:36.214Z,56.18
2022-11-12T19:25:11.406Z,57.98
2022-11-12T19:28:57.933Z,55.38
2022-11-12T19:32:35.299Z,58.30
2022-11-12T19:36:17.128Z,61.00
2022-11-12T19:39:51.358Z,56.00
2022-11-12T19:43:26.381Z,60.55
2022-11-12T19:47:01.194Z,57.53
2022-11-12T19:50:37.883Z,56.48
2022-11-12T19:54:12.736Z,50.45
2022-11-12T19:57:47.213Z,53.83
2022-11-12T20:01:24.298Z,58.68
2022-11-12T20:04:58.729Z,57.68
2022-11-12T20:08:36.396Z,52.98
2022-11-12T20:12:11.728Z,55.33
2022-11-12T20:15:47.568Z,49.03
2022-11-12T20:19:22.089Z,59.08
2022-11-12T20:22:59.418Z,54.90
2022-11-12T20:26:36.768Z,54.08
2022-11-12T20:30:16.312Z,59.38
2022-11-12T20:33:51.367Z,50.98
2022-11-12T20:37:26.613Z,49.50
2022-11-12T20:41:08.540Z,51.10
2022-11-12T20:44:44.284Z,46.43
2022-11-12T20:48:30.261Z,50.48
2022-11-12T20:52:07.816Z,51.83
2022-11-12T20:55:47.269Z,48.75
2022-11-12T20:59:24.286Z,51.18
2022-11-12T21:02:58.644Z,46.95
2022-11-12T21:06:35.522Z,46.03
2022-11-12T21:10:09.943Z,47.20
2022-11-12T21:13:45.762Z,53.90
2022-11-12T21:17:20.604Z,55.15
2022-11-12T21:20:55.359Z,49.55
2022-11-12T21:24:29.186Z,46.70
2022-11-12T21:28:04.178Z,46.70
2022-11-12T21:31:38.882Z,42.25
2022-11-12T21:35:17.329Z,48.98
2022-11-12T21:38:51.817Z,46.83
2022-11-12T21:42:25.546Z,44.18
2022-11-12T21:45:59.772Z,45.48
2022-11-12T21:49:35.220Z,44.25
2022-11-12T21:53:09.142Z,49.73
2022-11-12T21:56:44.884Z,51.43
2022-11-12T22:04:01.915Z,50.45
2022-11-12T22:07:35.917Z,51.08
2022-11-12T22:11:15.605Z,52.50
2022-11-12T22:14:51.721Z,57.85
2022-11-12T22:18:25.688Z,54.45
2022-11-12T22:22:00.343Z,53.90
2022-11-12T22:25:34.294Z,58.45
2022-11-12T22:29:12.138Z,48.98
2022-11-12T22:32:46.196Z,58.85
2022-11-12T22:36:23.090Z,58.33
2022-11-12T22:39:57.169Z,55.70
2022-11-12T22:43:30.977Z,59.40
2022-11-12T22:47:04.912Z,58.00
2022-11-12T22:50:39.350Z,56.48
2022-11-12T22:54:16.723Z,58.03
2022-11-12T22:57:52.126Z,59.08
2022-11-12T23:01:31.413Z,59.68
2022-11-12T23:05:05.896Z,58.35
2022-11-12T23:08:44.171Z,56.83
2022-11-12T23:12:18.284Z,58.40
2022-11-12T23:15:54.337Z,58.28
2022-11-12T23:19:30.066Z,60.50
2022-11-12T23:23:04.098Z,59.68
2022-11-12T23:26:39.138Z,57.18
2022-11-12T23:30:15.646Z,59.40
2022-11-12T23:33:53.974Z,57.65
2022-11-12T23:37:28.009Z,56.33
2022-11-12T23:41:06.201Z,58.60
2022-11-12T23:44:40.227Z,62.75
2022-11-12T23:48:14.746Z,58.33
2022-11-12T23:51:51.758Z,61.58
2022-11-12T23:55:29.059Z,55.53
2022-11-12T23:59:05.030Z,56.70
